sensor_id;sensor_type;location;lat;lon;timestamp;pressure;altitude;pressure_sealevel;temperature;humidity
62592;BME280;48659;41.622;2.276;2023-10-13T00:01:37;100272.73;;;16.72;64.07
62592;BME280;48659;41.622;2.276;2023-10-13T00:04:04;100269.44;;;17.99;61.26
62592;BME280;48659;41.622;2.276;2023-10-13T00:06:31;100268.47;;;18.28;60.78
62592;BME280;48659;41.622;2.276;2023-10-13T00:08:58;100269.64;;;17.55;63.08
62592;BME280;48659;41.622;2.276;2023-10-13T00:11:26;100272.48;;;17.82;61.36
62592;BME280;48659;41.622;2.276;2023-10-13T00:13:54;100278.54;;;16.77;64.41
62592;BME280;48659;41.622;2.276;2023-10-13T00:16:22;100282.61;;;16.69;65.72
62592;BME280;48659;41.622;2.276;2023-10-13T00:18:51;100286.08;;;16.75;65.72
62592;BME280;48659;41.622;2.276;2023-10-13T00:21:18;100283.90;;;15.21;68.60
62592;BME280;48659;41.622;2.276;2023-10-13T00:23:46;100285.45;;;15.52;68.36
62592;BME280;48659;41.622;2.276;2023-10-13T00:26:14;100284.21;;;16.01;67.14
62592;BME280;48659;41.622;2.276;2023-10-13T00:28:42;100282.52;;;15.72;66.96
62592;BME280;48659;41.622;2.276;2023-10-13T00:31:09;100285.44;;;16.47;65.00
62592;BME280;48659;41.622;2.276;2023-10-13T00:37:04;100277.92;;;17.21;61.32
62592;BME280;48659;41.622;2.276;2023-10-13T00:39:38;100279.23;;;17.53;60.88
62592;BME280;48659;41.622;2.276;2023-10-13T00:42:05;100279.07;;;15.72;65.26
62592;BME280;48659;41.622;2.276;2023-10-13T00:44:33;100278.22;;;15.45;68.31
62592;BME280;48659;41.622;2.276;2023-10-13T00:47:01;100275.17;;;15.68;66.62
62592;BME280;48659;41.622;2.276;2023-10-13T00:49:33;100274.29;;;16.09;65.37
62592;BME280;48659;41.622;2.276;2023-10-13T00:52:01;100274.24;;;16.90;62.76
62592;BME280;48659;41.622;2.276;2023-10-13T00:54:37;100273.01;;;16.70;64.84
62592;BME280;48659;41.622;2.276;2023-10-13T00:57:05;100269.45;;;16.23;64.65
62592;BME280;48659;41.622;2.276;2023-10-13T00:59:33;100267.34;;;15.41;66.84
62592;BME280;48659;41.622;2.276;2023-10-13T01:02:02;100266.13;;;15.68;66.02
62592;BME280;48659;41.622;2.276;2023-10-13T01:04:29;100265.01;;;16.96;61.90
62592;BME280;48659;41.622;2.276;2023-10-13T01:06:57;100262.62;;;15.90;65.07
62592;BME280;48659;41.622;2.276;2023-10-13T01:09:24;100261.17;;;15.64;66.62
62592;BME280;48659;41.622;2.276;2023-10-13T01:11:52;100260.46;;;15.61;65.82
62592;BME280;48659;41.622;2.276;2023-10-13T01:14:19;100261.29;;;14.88;67.70
62592;BME280;48659;41.622;2.276;2023-10-13T01:16:48;100254.98;;;15.87;64.98
62592;BME280;48659;41.622;2.276;2023-10-13T01:19:16;100249.39;;;17.00;60.72
62592;BME280;48659;41.622;2.276;2023-10-13T01:21:44;100240.79;;;17.86;58.98
62592;BME280;48659;41.622;2.276;2023-10-13T01:24:11;100238.34;;;17.24;59.06
62592;BME280;48659;41.622;2.276;2023-10-13T01:26:39;100237.06;;;17.80;58.11
62592;BME280;48659;41.622;2.276;2023-10-13T01:29:07;100236.03;;;17.52;58.81
62592;BME280;48659;41.622;2.276;2023-10-13T01:31:34;100234.68;;;16.62;59.66
62592;BME280;48659;41.622;2.276;2023-10-13T01:34:02;100233.51;;;16.93;59.39
62592;BME280;48659;41.622;2.276;2023-10-13T01:36:38;100225.88;;;17.57;56.85
62592;BME280;48659;41.622;2.276;2023-10-13T01:39:05;100227.87;;;15.95;60.49
62592;BME280;48659;41.622;2.276;2023-10-13T01:41:37;100223.00;;;15.37;62.29
62592;BME280;48659;41.622;2.276;2023-10-13T01:44:05;100223.15;;;17.14;58.72
62592;BME280;48659;41.622;2.276;2023-10-13T01:46:33;100225.95;;;16.56;60.44
62592;BME280;48659;41.622;2.276;2023-10-13T01:49:00;100211.83;;;16.99;58.36
62592;BME280;48659;41.622;2.276;2023-10-13T01:51:27;100211.60;;;17.44;56.95
62592;BME280;48659;41.622;2.276;2023-10-13T01:53:54;100207.19;;;18.03;55.62
62592;BME280;48659;41.622;2.276;2023-10-13T01:56:22;100207.53;;;18.42;53.63
62592;BME280;48659;41.622;2.276;2023-10-13T01:58:49;100203.45;;;18.18;54.25
62592;BME280;48659;41.622;2.276;2023-10-13T02:01:17;100202.16;;;17.88;55.24
62592;BME280;48659;41.622;2.276;2023-10-13T02:03:45;100203.78;;;17.62;55.20
62592;BME280;48659;41.622;2.276;2023-10-13T02:06:12;100205.48;;;17.87;55.13
62592;BME280;48659;41.622;2.276;2023-10-13T02:08:39;100204.26;;;17.31;55.33
62592;BME280;48659;41.622;2.276;2023-10-13T02:11:07;100201.26;;;18.01;55.03
62592;BME280;48659;41.622;2.276;2023-10-13T02:13:35;100198.71;;;18.29;54.71
62592;BME280;48659;41.622;2.276;2023-10-13T02:16:03;100195.16;;;18.33;53.86
62592;BME280;48659;41.622;2.276;2023-10-13T02:18:31;100193.87;;;18.18;53.95
62592;BME280;48659;41.622;2.276;2023-10-13T02:21:03;100190.10;;;18.10;53.53
62592;BME280;48659;41.622;2.276;2023-10-13T02:23:37;100190.02;;;17.57;53.89
62592;BME280;48659;41.622;2.276;2023-10-13T02:26:04;100192.76;;;17.78;54.73
62592;BME280;48659;41.622;2.276;2023-10-13T02:28:39;100191.09;;;17.62;55.00
62592;BME280;48659;41.622;2.276;2023-10-13T02:31:07;100184.85;;;17.62;54.99
62592;BME280;48659;41.622;2.276;2023-10-13T02:33:37;100183.15;;;17.38;55.21
62592;BME280;48659;41.622;2.276;2023-10-13T02:36:05;100181.48;;;17.45;55.17
62592;BME280;48659;41.622;2.276;2023-10-13T02:38:38;100181.24;;;17.84;53.53
62592;BME280;48659;41.622;2.276;2023-10-13T02:41:10;100182.31;;;16.63;55.58
62592;BME280;48659;41.622;2.276;2023-10-13T02:43:38;100187.34;;;16.48;56.31
62592;BME280;48659;41.622;2.276;2023-10-13T02:46:06;100181.59;;;17.34;54.53
62592;BME280;48659;41.622;2.276;2023-10-13T02:48:37;100179.52;;;17.78;53.74
62592;BME280;48659;41.622;2.276;2023-10-13T02:51:04;100179.08;;;17.70;54.15
62592;BME280;48659;41.622;2.276;2023-10-13T02:53:31;100179.37;;;18.04;53.01
62592;BME280;48659;41.622;2.276;2023-10-13T02:55:59;100178.52;;;17.32;54.32
62592;BME280;48659;41.622;2.276;2023-10-13T02:58:27;100183.04;;;16.54;56.06
62592;BME280;48659;41.622;2.276;2023-10-13T03:00:54;100183.28;;;16.61;55.86
62592;BME280;48659;41.622;2.276;2023-10-13T03:03:22;100179.46;;;16.83;55.06
62592;BME280;48659;41.622;2.276;2023-10-13T03:05:49;100188.44;;;15.74;57.24
62592;BME280;48659;41.622;2.276;2023-10-13T03:08:17;100184.53;;;14.83;60.21
62592;BME280;48659;41.622;2.276;2023-10-13T03:10:44;100182.79;;;16.37;56.60
62592;BME280;48659;41.622;2.276;2023-10-13T03:13:11;100176.49;;;16.97;54.48
62592;BME280;48659;41.622;2.276;2023-10-13T03:15:39;100179.17;;;16.80;53.86
62592;BME280;48659;41.622;2.276;2023-10-13T03:18:07;100180.23;;;17.34;52.72
62592;BME280;48659;41.622;2.276;2023-10-13T03:20:39;100181.21;;;17.21;52.39
62592;BME280;48659;41.622;2.276;2023-10-13T03:23:06;100183.60;;;17.44;51.77
62592;BME280;48659;41.622;2.276;2023-10-13T03:25:37;100185.62;;;17.00;52.14
62592;BME280;48659;41.622;2.276;2023-10-13T03:28:05;100184.15;;;17.26;52.46
62592;BME280;48659;41.622;2.276;2023-10-13T03:30:37;100185.40;;;16.97;53.07
62592;BME280;48659;41.622;2.276;2023-10-13T03:33:06;100187.43;;;16.84;53.66
62592;BME280;48659;41.622;2.276;2023-10-13T03:35:36;100188.03;;;16.30;53.63
62592;BME280;48659;41.622;2.276;2023-10-13T03:38:04;100187.07;;;16.02;54.27
62592;BME280;48659;41.622;2.276;2023-10-13T03:40:32;100178.89;;;17.38;52.32
62592;BME280;48659;41.622;2.276;2023-10-13T03:42:59;100184.44;;;16.62;53.26
62592;BME280;48659;41.622;2.276;2023-10-13T03:45:27;100176.31;;;17.02;52.47
62592;BME280;48659;41.622;2.276;2023-10-13T03:47:54;100178.63;;;16.97;53.11
62592;BME280;48659;41.622;2.276;2023-10-13T03:50:21;100177.05;;;16.39;53.79
62592;BME280;48659;41.622;2.276;2023-10-13T03:52:49;100178.88;;;16.00;54.48
62592;BME280;48659;41.622;2.276;2023-10-13T03:55:16;100174.97;;;15.54;56.88
62592;BME280;48659;41.622;2.276;2023-10-13T03:57:44;100173.93;;;16.51;54.06
62592;BME280;48659;41.622;2.276;2023-10-13T04:00:12;100171.60;;;16.63;54.06
62592;BME280;48659;41.622;2.276;2023-10-13T04:02:40;100172.47;;;16.96;53.21
62592;BME280;48659;41.622;2.276;2023-10-13T04:05:07;100173.78;;;16.78;53.42
62592;BME280;48659;41.622;2.276;2023-10-13T04:07:37;100171.68;;;16.59;53.17
62592;BME280;48659;41.622;2.276;2023-10-13T04:10:06;100171.34;;;16.71;53.34
62592;BME280;48659;41.622;2.276;2023-10-13T04:12:34;100168.18;;;16.87;52.91
62592;BME280;48659;41.622;2.276;2023-10-13T04:15:02;100172.67;;;16.00;54.20
62592;BME280;48659;41.622;2.276;2023-10-13T04:17:29;100168.41;;;16.77;53.76
62592;BME280;48659;41.622;2.276;2023-10-13T04:19:58;100171.69;;;15.85;55.26
62592;BME280;48659;41.622;2.276;2023-10-13T04:22:26;100171.59;;;16.68;53.63
62592;BME280;48659;41.622;2.276;2023-10-13T04:24:53;100170.28;;;16.31;53.78
62592;BME280;48659;41.622;2.276;2023-10-13T04:27:21;100165.44;;;16.78;52.98
62592;BME280;48659;41.622;2.276;2023-10-13T04:29:47;100171.80;;;16.66;53.40
62592;BME280;48659;41.622;2.276;2023-10-13T04:32:16;100174.22;;;16.81;53.27
62592;BME280;48659;41.622;2.276;2023-10-13T04:34:44;100172.93;;;16.54;53.40
62592;BME280;48659;41.622;2.276;2023-10-13T04:37:12;100173.05;;;16.46;53.51
62592;BME280;48659;41.622;2.276;2023-10-13T04:39:40;100176.11;;;16.31;53.44
62592;BME280;48659;41.622;2.276;2023-10-13T04:42:08;100175.92;;;16.81;53.49
62592;BME280;48659;41.622;2.276;2023-10-13T04:44:36;100175.15;;;15.96;53.83
62592;BME280;48659;41.622;2.276;2023-10-13T04:47:03;100170.43;;;15.31;56.50
62592;BME280;48659;41.622;2.276;2023-10-13T04:49:39;100167.48;;;14.29;58.72
62592;BME280;48659;41.622;2.276;2023-10-13T04:52:07;100174.14;;;13.28;62.75
62592;BME280;48659;41.622;2.276;2023-10-13T04:54:41;100169.23;;;14.14;59.43
62592;BME280;48659;41.622;2.276;2023-10-13T04:57:09;100168.01;;;16.15;55.80
62592;BME280;48659;41.622;2.276;2023-10-13T04:59:36;100170.94;;;16.30;54.22
62592;BME280;48659;41.622;2.276;2023-10-13T05:02:03;100170.24;;;16.18;54.40
62592;BME280;48659;41.622;2.276;2023-10-13T05:04:31;100171.56;;;15.96;54.34
62592;BME280;48659;41.622;2.276;2023-10-13T05:06:58;100173.53;;;16.41;54.10
62592;BME280;48659;41.622;2.276;2023-10-13T05:09:25;100171.96;;;16.48;53.79
62592;BME280;48659;41.622;2.276;2023-10-13T05:11:53;100174.04;;;16.68;52.86
62592;BME280;48659;41.622;2.276;2023-10-13T05:14:20;100173.14;;;16.47;54.23
62592;BME280;48659;41.622;2.276;2023-10-13T05:16:48;100176.50;;;15.58;56.22
62592;BME280;48659;41.622;2.276;2023-10-13T05:19:15;100171.86;;;16.72;54.11
62592;BME280;48659;41.622;2.276;2023-10-13T05:21:42;100170.62;;;16.05;53.74
62592;BME280;48659;41.622;2.276;2023-10-13T05:24:09;100170.98;;;16.53;53.28
62592;BME280;48659;41.622;2.276;2023-10-13T05:26:37;100170.80;;;16.85;53.57
62592;BME280;48659;41.622;2.276;2023-10-13T05:29:04;100165.39;;;16.62;53.75
62592;BME280;48659;41.622;2.276;2023-10-13T05:31:32;100168.75;;;15.43;56.05
62592;BME280;48659;41.622;2.276;2023-10-13T05:34:00;100165.30;;;16.32;54.42
62592;BME280;48659;41.622;2.276;2023-10-13T05:36:27;100166.24;;;16.50;54.56
62592;BME280;48659;41.622;2.276;2023-10-13T05:38:55;100167.86;;;15.66;55.91
62592;BME280;48659;41.622;2.276;2023-10-13T05:41:23;100166.14;;;15.75;55.53
62592;BME280;48659;41.622;2.276;2023-10-13T05:43:50;100164.14;;;15.03;57.07
62592;BME280;48659;41.622;2.276;2023-10-13T05:46:17;100164.92;;;14.42;59.42
62592;BME280;48659;41.622;2.276;2023-10-13T05:48:46;100160.21;;;14.58;59.47
62592;BME280;48659;41.622;2.276;2023-10-13T05:51:13;100161.75;;;15.04;57.97
62592;BME280;48659;41.622;2.276;2023-10-13T05:53:41;100159.12;;;15.28;57.81
62592;BME280;48659;41.622;2.276;2023-10-13T05:56:08;100158.13;;;15.53;57.24
62592;BME280;48659;41.622;2.276;2023-10-13T05:58:36;100159.89;;;14.99;57.96
62592;BME280;48659;41.622;2.276;2023-10-13T06:01:03;100160.23;;;15.16;58.35
62592;BME280;48659;41.622;2.276;2023-10-13T06:03:30;100163.97;;;13.20;64.53
62592;BME280;48659;41.622;2.276;2023-10-13T06:05:57;100166.25;;;13.16;66.96
62592;BME280;48659;41.622;2.276;2023-10-13T06:08:25;100168.27;;;12.86;66.30
62592;BME280;48659;41.622;2.276;2023-10-13T06:11:01;100171.18;;;12.61;67.22
62592;BME280;48659;41.622;2.276;2023-10-13T06:13:42;100173.22;;;14.60;62.41
62592;BME280;48659;41.622;2.276;2023-10-13T06:16:10;100169.11;;;15.89;57.18
62592;BME280;48659;41.622;2.276;2023-10-13T06:18:37;100168.99;;;14.43;60.16
62592;BME280;48659;41.622;2.276;2023-10-13T06:21:05;100171.97;;;13.57;62.73
62592;BME280;48659;41.622;2.276;2023-10-13T06:23:37;100172.23;;;13.87;62.55
62592;BME280;48659;41.622;2.276;2023-10-13T06:26:05;100176.95;;;13.92;61.95
62592;BME280;48659;41.622;2.276;2023-10-13T06:28:38;100175.23;;;15.05;58.54
62592;BME280;48659;41.622;2.276;2023-10-13T06:31:11;100176.41;;;15.03;58.53
62592;BME280;48659;41.622;2.276;2023-10-13T06:33:39;100180.64;;;13.28;61.66
62592;BME280;48659;41.622;2.276;2023-10-13T06:36:07;100183.17;;;13.28;62.12
62592;BME280;48659;41.622;2.276;2023-10-13T06:38:37;100180.43;;;14.08;60.78
62592;BME280;48659;41.622;2.276;2023-10-13T06:41:05;100180.97;;;14.40;60.39
62592;BME280;48659;41.622;2.276;2023-10-13T06:43:37;100182.72;;;14.52;59.83
62592;BME280;48659;41.622;2.276;2023-10-13T06:46:05;100185.23;;;14.97;58.72
62592;BME280;48659;41.622;2.276;2023-10-13T06:48:37;100188.54;;;13.72;60.77
62592;BME280;48659;41.622;2.276;2023-10-13T06:51:05;100186.19;;;15.66;57.73
62592;BME280;48659;41.622;2.276;2023-10-13T06:53:37;100189.25;;;14.38;59.42
62592;BME280;48659;41.622;2.276;2023-10-13T06:56:06;100186.30;;;14.80;59.30
62592;BME280;48659;41.622;2.276;2023-10-13T06:58:33;100188.78;;;15.24;58.59
62592;BME280;48659;41.622;2.276;2023-10-13T07:01:00;100188.82;;;15.15;58.48
62592;BME280;48659;41.622;2.276;2023-10-13T07:03:37;100188.18;;;14.98;58.66
62592;BME280;48659;41.622;2.276;2023-10-13T07:06:06;100194.40;;;13.76;62.51
62592;BME280;48659;41.622;2.276;2023-10-13T07:08:34;100192.48;;;14.62;60.17
62592;BME280;48659;41.622;2.276;2023-10-13T07:11:01;100192.89;;;14.88;60.27
62592;BME280;48659;41.622;2.276;2023-10-13T07:13:37;100191.05;;;14.50;60.65
62592;BME280;48659;41.622;2.276;2023-10-13T07:16:04;100188.67;;;15.96;56.90
62592;BME280;48659;41.622;2.276;2023-10-13T07:18:38;100185.48;;;16.88;54.86
62592;BME280;48659;41.622;2.276;2023-10-13T07:21:05;100182.91;;;16.48;54.30
62592;BME280;48659;41.622;2.276;2023-10-13T07:23:37;100180.64;;;16.40;55.85
62592;BME280;48659;41.622;2.276;2023-10-13T07:26:06;100177.95;;;17.57;53.02
62592;BME280;48659;41.622;2.276;2023-10-13T07:28:37;100186.15;;;15.87;55.53
62592;BME280;48659;41.622;2.276;2023-10-13T07:31:04;100190.00;;;16.58;54.64
62592;BME280;48659;41.622;2.276;2023-10-13T07:33:37;100183.76;;;17.19;53.22
62592;BME280;48659;41.622;2.276;2023-10-13T07:36:06;100190.19;;;17.09;54.62
62592;BME280;48659;41.622;2.276;2023-10-13T07:38:34;100193.66;;;16.18;55.55
62592;BME280;48659;41.622;2.276;2023-10-13T07:41:02;100190.56;;;17.35;53.97
62592;BME280;48659;41.622;2.276;2023-10-13T07:43:36;100194.68;;;18.00;52.58
62592;BME280;48659;41.622;2.276;2023-10-13T07:46:04;100192.16;;;18.49;50.43
62592;BME280;48659;41.622;2.276;2023-10-13T07:48:31;100200.86;;;17.62;51.88
62592;BME280;48659;41.622;2.276;2023-10-13T07:51:00;100193.46;;;19.34;48.42
62592;BME280;48659;41.622;2.276;2023-10-13T07:53:28;100198.08;;;18.93;48.74
62592;BME280;48659;41.622;2.276;2023-10-13T07:55:55;100199.73;;;18.78;49.58
62592;BME280;48659;41.622;2.276;2023-10-13T07:58:23;100197.50;;;19.56;48.45
62592;BME280;48659;41.622;2.276;2023-10-13T08:00:52;100199.25;;;18.72;48.79
62592;BME280;48659;41.622;2.276;2023-10-13T08:03:20;100194.81;;;18.99;49.27
62592;BME280;48659;41.622;2.276;2023-10-13T08:05:52;100194.42;;;19.81;48.23
62592;BME280;48659;41.622;2.276;2023-10-13T08:08:20;100197.83;;;20.48;46.18
62592;BME280;48659;41.622;2.276;2023-10-13T08:10:47;100192.74;;;20.84;45.77
62592;BME280;48659;41.622;2.276;2023-10-13T08:13:15;100193.75;;;20.99;45.57
62592;BME280;48659;41.622;2.276;2023-10-13T08:15:42;100193.73;;;21.08;45.66
62592;BME280;48659;41.622;2.276;2023-10-13T08:18:10;100190.54;;;21.38;45.38
62592;BME280;48659;41.622;2.276;2023-10-13T08:20:42;100188.47;;;21.21;45.67
62592;BME280;48659;41.622;2.276;2023-10-13T08:23:10;100189.54;;;21.23;46.40
62592;BME280;48659;41.622;2.276;2023-10-13T08:25:37;100180.23;;;21.36;45.92
62592;BME280;48659;41.622;2.276;2023-10-13T08:28:05;100182.28;;;21.71;45.64
62592;BME280;48659;41.622;2.276;2023-10-13T08:30:38;100184.57;;;21.61;45.01
62592;BME280;48659;41.622;2.276;2023-10-13T08:33:06;100186.02;;;21.74;45.52
62592;BME280;48659;41.622;2.276;2023-10-13T08:35:33;100184.76;;;22.00;45.67
62592;BME280;48659;41.622;2.276;2023-10-13T08:38:03;100183.32;;;21.43;45.84
62592;BME280;48659;41.622;2.276;2023-10-13T08:40:40;100183.36;;;21.77;45.64
62592;BME280;48659;41.622;2.276;2023-10-13T08:43:11;100183.40;;;20.90;46.56
62592;BME280;48659;41.622;2.276;2023-10-13T08:45:41;100185.91;;;22.23;45.77
62592;BME280;48659;41.622;2.276;2023-10-13T08:48:10;100188.11;;;22.32;45.16
62592;BME280;48659;41.622;2.276;2023-10-13T08:50:44;100188.51;;;22.02;45.01
62592;BME280;48659;41.622;2.276;2023-10-13T08:53:12;100187.36;;;21.84;45.55
62592;BME280;48659;41.622;2.276;2023-10-13T08:55:40;100181.52;;;22.34;44.29
62592;BME280;48659;41.622;2.276;2023-10-13T08:58:07;100183.52;;;20.58;47.46
62592;BME280;48659;41.622;2.276;2023-10-13T09:00:35;100179.89;;;22.12;45.60
62592;BME280;48659;41.622;2.276;2023-10-13T09:03:06;100176.70;;;22.43;45.57
62592;BME280;48659;41.622;2.276;2023-10-13T09:05:39;100174.77;;;21.87;46.80
62592;BME280;48659;41.622;2.276;2023-10-13T09:08:08;100175.47;;;22.49;46.56
62592;BME280;48659;41.622;2.276;2023-10-13T09:10:37;100175.59;;;22.25;47.19
62592;BME280;48659;41.622;2.276;2023-10-13T09:13:04;100174.49;;;22.66;47.28
62592;BME280;48659;41.622;2.276;2023-10-13T09:15:31;100177.29;;;21.52;50.03
62592;BME280;48659;41.622;2.276;2023-10-13T09:17:59;100176.62;;;22.80;48.60
62592;BME280;48659;41.622;2.276;2023-10-13T09:20:40;100174.94;;;22.89;48.33
62592;BME280;48659;41.622;2.276;2023-10-13T09:23:10;100183.66;;;20.65;52.83
62592;BME280;48659;41.622;2.276;2023-10-13T09:25:40;100175.76;;;20.63;51.87
62592;BME280;48659;41.622;2.276;2023-10-13T09:28:12;100177.18;;;22.55;49.71
62592;BME280;48659;41.622;2.276;2023-10-13T09:30:43;100177.11;;;21.75;50.15
62592;BME280;48659;41.622;2.276;2023-10-13T09:33:11;100176.41;;;22.78;49.29
62592;BME280;48659;41.622;2.276;2023-10-13T09:35:39;100177.22;;;21.56;51.80
62592;BME280;48659;41.622;2.276;2023-10-13T09:38:06;100176.28;;;20.83;53.33
62592;BME280;48659;41.622;2.276;2023-10-13T09:40:42;100175.69;;;22.96;49.87
62592;BME280;48659;41.622;2.276;2023-10-13T09:43:09;100176.70;;;23.08;49.09
62592;BME280;48659;41.622;2.276;2023-10-13T09:45:38;100181.26;;;22.28;49.99
62592;BME280;48659;41.622;2.276;2023-10-13T09:48:09;100178.88;;;23.06;48.51
62592;BME280;48659;41.622;2.276;2023-10-13T09:50:37;100180.65;;;23.37;48.27
62592;BME280;48659;41.622;2.276;2023-10-13T09:53:06;100177.48;;;23.01;50.28
62592;BME280;48659;41.622;2.276;2023-10-13T09:55:41;100177.79;;;22.07;50.50
62592;BME280;48659;41.622;2.276;2023-10-13T09:58:10;100173.89;;;23.25;49.39
62592;BME280;48659;41.622;2.276;2023-10-13T10:00:44;100174.13;;;21.31;52.09
62592;BME280;48659;41.622;2.276;2023-10-13T10:03:12;100171.45;;;23.64;49.94
62592;BME280;48659;41.622;2.276;2023-10-13T10:05:42;100168.69;;;23.16;49.83
62592;BME280;48659;41.622;2.276;2023-10-13T10:08:09;100166.77;;;22.89;51.22
62592;BME280;48659;41.622;2.276;2023-10-13T10:10:49;100163.47;;;22.65;52.81
62592;BME280;48659;41.622;2.276;2023-10-13T10:13:26;100165.21;;;23.15;52.62
62592;BME280;48659;41.622;2.276;2023-10-13T10:16:01;100157.83;;;22.68;53.61
62592;BME280;48659;41.622;2.276;2023-10-13T10:18:37;100157.88;;;23.00;51.94
62592;BME280;48659;41.622;2.276;2023-10-13T10:21:05;100157.31;;;23.98;50.25
62592;BME280;48659;41.622;2.276;2023-10-13T10:23:38;100159.89;;;24.05;49.41
62592;BME280;48659;41.622;2.276;2023-10-13T10:26:14;100158.59;;;24.55;48.33
62592;BME280;48659;41.622;2.276;2023-10-13T10:28:42;100158.59;;;22.59;51.06
62592;BME280;48659;41.622;2.276;2023-10-13T10:31:11;100153.42;;;23.70;49.76
62592;BME280;48659;41.622;2.276;2023-10-13T10:33:39;100155.66;;;23.68;49.53
62592;BME280;48659;41.622;2.276;2023-10-13T10:36:07;100154.00;;;24.06;49.69
62592;BME280;48659;41.622;2.276;2023-10-13T10:38:37;100153.31;;;22.31;51.35
62592;BME280;48659;41.622;2.276;2023-10-13T10:41:05;100151.09;;;23.97;50.33
62592;BME280;48659;41.622;2.276;2023-10-13T10:43:37;100146.72;;;24.22;48.97
62592;BME280;48659;41.622;2.276;2023-10-13T10:46:04;100148.74;;;22.39;52.43
62592;BME280;48659;41.622;2.276;2023-10-13T10:48:32;100147.10;;;24.21;48.86
62592;BME280;48659;41.622;2.276;2023-10-13T10:51:00;100140.12;;;23.13;51.57
62592;BME280;48659;41.622;2.276;2023-10-13T10:53:28;100140.32;;;24.05;49.65
62592;BME280;48659;41.622;2.276;2023-10-13T10:56:04;100138.76;;;24.31;48.93
62592;BME280;48659;41.622;2.276;2023-10-13T10:58:37;100136.32;;;23.79;49.53
62592;BME280;48659;41.622;2.276;2023-10-13T11:01:06;100125.77;;;24.77;47.93
62592;BME280;48659;41.622;2.276;2023-10-13T11:03:38;100121.81;;;24.89;47.75
62592;BME280;48659;41.622;2.276;2023-10-13T11:06:06;100119.81;;;24.96;47.68
62592;BME280;48659;41.622;2.276;2023-10-13T11:08:38;100112.56;;;25.02;47.18
62592;BME280;48659;41.622;2.276;2023-10-13T11:11:06;100111.04;;;25.27;47.66
62592;BME280;48659;41.622;2.276;2023-10-13T11:13:41;100109.95;;;24.42;48.90
62592;BME280;48659;41.622;2.276;2023-10-13T11:16:08;100105.34;;;24.45;48.82
62592;BME280;48659;41.622;2.276;2023-10-13T11:18:39;100099.48;;;24.10;48.49
62592;BME280;48659;41.622;2.276;2023-10-13T11:21:06;100099.70;;;23.47;50.60
62592;BME280;48659;41.622;2.276;2023-10-13T11:23:36;100103.03;;;24.12;48.77
62592;BME280;48659;41.622;2.276;2023-10-13T11:26:04;100098.49;;;25.13;47.56
62592;BME280;48659;41.622;2.276;2023-10-13T11:28:31;100092.86;;;24.33;48.17
62592;BME280;48659;41.622;2.276;2023-10-13T11:30:59;100076.50;;;24.94;47.25
62592;BME280;48659;41.622;2.276;2023-10-13T11:33:27;100087.73;;;24.74;48.19
62592;BME280;48659;41.622;2.276;2023-10-13T11:35:55;100087.94;;;24.33;48.00
62592;BME280;48659;41.622;2.276;2023-10-13T11:38:24;100078.58;;;25.66;45.78
62592;BME280;48659;41.622;2.276;2023-10-13T11:40:52;100072.72;;;25.00;46.93
62592;BME280;48659;41.622;2.276;2023-10-13T11:43:20;100070.94;;;25.53;45.81
62592;BME280;48659;41.622;2.276;2023-10-13T11:45:48;100065.39;;;26.28;44.67
62592;BME280;48659;41.622;2.276;2023-10-13T11:48:15;100059.66;;;26.59;43.94
62592;BME280;48659;41.622;2.276;2023-10-13T11:50:42;100054.07;;;25.02;45.50
62592;BME280;48659;41.622;2.276;2023-10-13T11:53:10;100050.73;;;25.40;45.18
62592;BME280;48659;41.622;2.276;2023-10-13T11:55:37;100050.15;;;24.28;46.07
62592;BME280;48659;41.622;2.276;2023-10-13T11:58:04;100048.14;;;25.31;45.80
62592;BME280;48659;41.622;2.276;2023-10-13T12:00:32;100041.21;;;25.55;44.90
62592;BME280;48659;41.622;2.276;2023-10-13T12:02:59;100036.75;;;25.01;46.10
62592;BME280;48659;41.622;2.276;2023-10-13T12:05:26;100035.26;;;25.37;45.67
62592;BME280;48659;41.622;2.276;2023-10-13T12:07:54;100033.08;;;26.22;44.39
62592;BME280;48659;41.622;2.276;2023-10-13T12:10:21;100025.97;;;26.48;43.48
62592;BME280;48659;41.622;2.276;2023-10-13T12:12:48;100024.06;;;26.51;42.66
62592;BME280;48659;41.622;2.276;2023-10-13T12:15:16;100017.87;;;27.24;42.07
62592;BME280;48659;41.622;2.276;2023-10-13T12:17:43;100015.37;;;24.71;45.59
62592;BME280;48659;41.622;2.276;2023-10-13T12:20:11;100014.78;;;25.52;44.86
62592;BME280;48659;41.622;2.276;2023-10-13T12:22:38;100008.93;;;24.46;45.70
62592;BME280;48659;41.622;2.276;2023-10-13T12:25:06;100003.18;;;26.58;42.62
62592;BME280;48659;41.622;2.276;2023-10-13T12:27:38;100002.08;;;26.05;43.01
62592;BME280;48659;41.622;2.276;2023-10-13T12:30:06;99998.29;;;26.31;43.01
62592;BME280;48659;41.622;2.276;2023-10-13T12:32:38;99988.51;;;26.58;42.69
62592;BME280;48659;41.622;2.276;2023-10-13T12:35:05;99986.79;;;27.26;41.98
62592;BME280;48659;41.622;2.276;2023-10-13T12:37:36;99984.36;;;26.66;42.76
62592;BME280;48659;41.622;2.276;2023-10-13T12:40:04;99983.62;;;26.81;43.63
62592;BME280;48659;41.622;2.276;2023-10-13T12:42:37;99983.50;;;24.06;48.34
62592;BME280;48659;41.622;2.276;2023-10-13T12:45:05;99978.24;;;25.89;45.36
62592;BME280;48659;41.622;2.276;2023-10-13T12:47:37;99969.72;;;26.12;44.80
62592;BME280;48659;41.622;2.276;2023-10-13T12:50:04;99960.04;;;26.65;44.03
62592;BME280;48659;41.622;2.276;2023-10-13T12:52:32;99959.13;;;25.44;46.32
62592;BME280;48659;41.622;2.276;2023-10-13T12:55:00;99957.39;;;26.04;45.51
62592;BME280;48659;41.622;2.276;2023-10-13T12:57:28;99958.24;;;26.54;43.36
62592;BME280;48659;41.622;2.276;2023-10-13T12:59:55;99959.85;;;27.44;41.48
62592;BME280;48659;41.622;2.276;2023-10-13T13:02:24;99958.58;;;25.77;45.45